createdAt,value
2019-05-29T00:01:10.445Z,3.50
2019-05-29T00:03:37.643Z,3.77
2019-05-29T00:06:06.406Z,3.93
2019-05-29T00:08:35.410Z,3.80
2019-05-29T00:11:03.770Z,3.77
2019-05-29T00:13:32.266Z,3.63
2019-05-29T00:16:00.966Z,3.97
2019-05-29T00:18:29.627Z,3.80
2019-05-29T00:20:58.320Z,3.90
2019-05-29T00:23:27.377Z,4.33
2019-05-29T00:25:56.093Z,4.20
2019-05-29T00:28:25.397Z,3.70
2019-05-29T00:30:54.114Z,3.50
2019-05-29T00:33:22.551Z,4.17
2019-05-29T00:35:51.250Z,3.97
2019-05-29T00:38:19.951Z,4.17
2019-05-29T00:40:48.334Z,3.83
2019-05-29T00:43:17.570Z,4.30
2019-05-29T00:45:46.233Z,3.60
2019-05-29T00:48:16.063Z,3.67
2019-05-29T00:50:44.378Z,3.40
2019-05-29T00:53:14.213Z,3.33
2019-05-29T00:55:43.813Z,3.63
2019-05-29T00:58:12.787Z,3.33
2019-05-29T01:00:41.603Z,3.40
2019-05-29T01:03:11.620Z,3.50
2019-05-29T01:05:40.201Z,3.30
2019-05-29T01:08:10.250Z,3.50
2019-05-29T01:10:39.394Z,3.83
2019-05-29T01:13:08.357Z,3.80
2019-05-29T01:15:36.988Z,3.13
2019-05-29T01:18:06.386Z,3.20
2019-05-29T01:20:34.962Z,3.60
2019-05-29T01:23:03.658Z,3.90
2019-05-29T01:25:32.601Z,3.43
2019-05-29T01:28:01.418Z,3.60
2019-05-29T01:30:29.826Z,3.93
2019-05-29T01:32:58.593Z,4.00
2019-05-29T01:35:27.273Z,3.33
2019-05-29T01:37:56.006Z,3.70
2019-05-29T01:40:27.829Z,4.10
2019-05-29T01:42:54.879Z,4.20
2019-05-29T01:45:23.607Z,3.90
2019-05-29T01:47:52.339Z,4.20
2019-05-29T01:50:21.763Z,4.10
2019-05-29T01:52:50.751Z,4.00
2019-05-29T01:55:19.735Z,4.20
2019-05-29T01:57:48.220Z,4.50
2019-05-29T02:00:17.776Z,4.13
2019-05-29T02:02:46.210Z,4.00
2019-05-29T02:05:15.717Z,4.67
2019-05-29T02:07:44.212Z,4.30
2019-05-29T02:10:12.917Z,4.43
2019-05-29T02:12:41.538Z,4.20
2019-05-29T02:15:23.072Z,4.13
2019-05-29T02:17:40.559Z,4.30
2019-05-29T02:20:09.325Z,4.40
2019-05-29T02:22:37.766Z,4.20
2019-05-29T02:25:06.538Z,5.00
2019-05-29T02:27:35.946Z,4.40
2019-05-29T02:30:06.461Z,4.63
2019-05-29T02:32:34.973Z,4.40
2019-05-29T02:35:03.528Z,4.20
2019-05-29T02:37:32.213Z,4.63
2019-05-29T02:40:00.585Z,4.70
2019-05-29T02:42:29.263Z,4.33
2019-05-29T02:44:57.766Z,4.17
2019-05-29T02:47:30.260Z,4.00
2019-05-29T02:49:58.630Z,4.80
2019-05-29T02:52:28.677Z,4.60
2019-05-29T02:54:57.912Z,4.60
2019-05-29T02:57:27.077Z,4.77
2019-05-29T02:59:55.897Z,4.30
2019-05-29T03:02:25.568Z,4.70
2019-05-29T03:04:54.249Z,4.80
2019-05-29T03:07:24.315Z,4.70
2019-05-29T03:09:52.591Z,4.57
2019-05-29T03:12:22.758Z,3.80
2019-05-29T03:14:51.702Z,4.27
2019-05-29T03:17:20.187Z,4.33
2019-05-29T03:19:48.890Z,4.30
2019-05-29T03:22:17.571Z,4.40
2019-05-29T03:24:46.238Z,3.97
2019-05-29T03:27:14.927Z,4.27
2019-05-29T03:29:43.602Z,4.53
2019-05-29T03:32:14.608Z,4.70
2019-05-29T03:34:49.478Z,4.40
2019-05-29T03:37:17.640Z,4.47
2019-05-29T03:39:46.131Z,4.40
2019-05-29T03:42:14.839Z,5.03
2019-05-29T03:44:43.498Z,4.93
2019-05-29T03:47:12.189Z,4.80
2019-05-29T03:49:40.905Z,4.20
2019-05-29T03:52:09.569Z,4.63
2019-05-29T03:54:38.736Z,5.00
2019-05-29T03:57:07.574Z,4.43
2019-05-29T03:59:37.409Z,4.87
2019-05-29T04:02:07.393Z,4.97
2019-05-29T04:04:38.021Z,4.87
2019-05-29T04:07:06.075Z,5.13
2019-05-29T04:09:35.413Z,4.97
2019-05-29T04:12:04.158Z,4.70
2019-05-29T04:14:33.473Z,4.93
2019-05-29T04:17:02.774Z,5.13
2019-05-29T04:19:32.611Z,5.30
2019-05-29T04:22:07.511Z,5.23
2019-05-29T04:24:39.078Z,5.20
2019-05-29T04:27:10.714Z,4.73
2019-05-29T04:29:40.302Z,4.57
2019-05-29T04:32:09.748Z,4.47
2019-05-29T04:34:39.815Z,4.70
2019-05-29T04:37:08.215Z,4.63
2019-05-29T04:39:37.043Z,4.63
2019-05-29T04:42:06.227Z,4.87
2019-05-29T04:44:36.274Z,4.80
2019-05-29T04:47:10.910Z,4.90
2019-05-29T04:49:37.873Z,5.70
2019-05-29T04:52:07.003Z,4.87
2019-05-29T04:54:38.416Z,4.80
2019-05-29T04:57:07.850Z,4.80
2019-05-29T04:59:37.091Z,4.80
2019-05-29T05:02:05.949Z,4.63
2019-05-29T05:04:35.192Z,4.60
2019-05-29T05:07:03.924Z,4.67
2019-05-29T05:09:33.364Z,4.90
2019-05-29T05:12:01.701Z,4.57
2019-05-29T05:14:30.087Z,5.27
2019-05-29T05:16:58.973Z,4.70
2019-05-29T05:19:27.553Z,4.90
2019-05-29T05:21:55.937Z,5.13
2019-05-29T05:24:24.557Z,4.83
2019-05-29T05:26:53.191Z,4.93
2019-05-29T05:29:22.639Z,4.77
2019-05-29T05:31:52.094Z,5.13
2019-05-29T05:34:20.959Z,4.47
2019-05-29T05:36:50.206Z,5.00
2019-05-29T05:39:18.903Z,5.00
2019-05-29T05:41:47.511Z,4.57
2019-05-29T05:44:16.245Z,5.57
2019-05-29T05:46:44.961Z,4.97
2019-05-29T05:49:13.414Z,5.37
2019-05-29T05:51:44.566Z,5.03
2019-05-29T05:54:12.239Z,4.70
2019-05-29T05:56:41.802Z,4.83
2019-05-29T05:59:10.423Z,4.40
2019-05-29T06:01:43.147Z,5.10
2019-05-29T06:04:21.447Z,4.93
2019-05-29T06:06:59.917Z,5.27
2019-05-29T06:09:34.539Z,5.00
2019-05-29T06:12:08.382Z,4.53
2019-05-29T06:14:43.391Z,5.10
2019-05-29T06:17:21.794Z,4.77
2019-05-29T06:20:00.386Z,4.80
2019-05-29T06:22:41.025Z,5.23
2019-05-29T06:25:14.911Z,4.93
2019-05-29T06:27:51.704Z,4.70
2019-05-29T06:30:25.228Z,4.87
2019-05-29T06:33:01.613Z,4.93
2019-05-29T06:35:39.645Z,4.57
2019-05-29T06:38:12.347Z,4.60
2019-05-29T06:40:56.882Z,4.60
2019-05-29T06:43:30.401Z,4.23
2019-05-29T06:46:03.590Z,4.07
2019-05-29T06:48:46.700Z,4.23
2019-05-29T06:51:15.213Z,4.10
2019-05-29T06:53:49.888Z,4.23
2019-05-29T06:56:27.180Z,4.00
2019-05-29T06:59:01.989Z,4.27
2019-05-29T07:01:35.134Z,4.43
2019-05-29T07:04:13.145Z,4.23
2019-05-29T07:06:46.759Z,3.90
2019-05-29T07:09:20.207Z,3.83
2019-05-29T07:11:52.825Z,4.07
2019-05-29T07:14:29.756Z,3.57
2019-05-29T07:17:02.714Z,3.90
2019-05-29T07:19:49.046Z,3.50
2019-05-29T07:22:17.569Z,3.40
2019-05-29T07:24:54.045Z,3.70
2019-05-29T07:27:29.331Z,3.40
2019-05-29T07:30:04.365Z,3.60
2019-05-29T07:32:39.261Z,3.20
2019-05-29T07:35:19.242Z,3.17
2019-05-29T07:37:53.592Z,3.03
2019-05-29T07:40:29.123Z,3.20
2019-05-29T07:43:00.207Z,2.77
2019-05-29T07:45:34.653Z,3.30
2019-05-29T07:48:09.791Z,3.40
2019-05-29T07:50:49.023Z,2.73
2019-05-29T07:53:20.987Z,2.90
2019-05-29T07:55:54.226Z,2.60
2019-05-29T07:58:41.996Z,2.63
2019-05-29T08:01:17.898Z,3.70
2019-05-29T08:03:56.895Z,4.53
2019-05-29T08:06:30.592Z,4.50
2019-05-29T08:09:05.946Z,3.90
2019-05-29T08:11:41.537Z,2.80
2019-05-29T08:14:19.663Z,2.80
2019-05-29T08:16:54.010Z,3.10
2019-05-29T08:19:30.103Z,2.97
2019-05-29T08:22:05.326Z,2.60
2019-05-29T08:24:46.288Z,2.37
2019-05-29T08:27:25.577Z,1.93
2019-05-29T08:30:03.755Z,2.30
2019-05-29T08:32:40.839Z,2.10
2019-05-29T08:35:14.318Z,1.87
2019-05-29T08:37:51.181Z,2.00
2019-05-29T08:40:28.444Z,1.97
2019-05-29T08:43:02.366Z,2.20
2019-05-29T08:45:39.077Z,2.00
2019-05-29T08:48:13.090Z,2.30
2019-05-29T08:50:51.997Z,2.40
2019-05-29T08:53:27.327Z,2.27
2019-05-29T08:56:02.422Z,2.10
2019-05-29T08:58:38.735Z,2.00
2019-05-29T09:01:15.847Z,1.70
2019-05-29T09:03:49.161Z,1.87
2019-05-29T09:06:24.826Z,2.10
2019-05-29T09:08:54.998Z,1.87
2019-05-29T09:11:29.352Z,1.97
2019-05-29T09:14:02.678Z,1.93
2019-05-29T09:16:38.068Z,1.90
2019-05-29T09:19:12.578Z,1.97
2019-05-29T09:21:48.927Z,1.97
2019-05-29T09:24:26.098Z,2.00
2019-05-29T09:26:55.003Z,1.93
2019-05-29T09:29:24.786Z,2.20
2019-05-29T09:31:53.851Z,2.03
2019-05-29T09:34:22.782Z,2.20
2019-05-29T09:36:55.516Z,1.80
2019-05-29T09:39:22.758Z,1.80
2019-05-29T09:42:25.608Z,1.70
2019-05-29T09:44:58.136Z,1.97
2019-05-29T09:47:33.719Z,2.00
2019-05-29T09:50:10.505Z,1.90
2019-05-29T09:52:45.430Z,1.80
2019-05-29T09:55:22.267Z,1.70
2019-05-29T09:57:56.913Z,1.77
2019-05-29T10:00:34.520Z,1.90
2019-05-29T10:03:06.771Z,2.93
2019-05-29T10:05:40.132Z,1.67
2019-05-29T10:08:12.209Z,1.33
2019-05-29T10:10:48.380Z,1.67
2019-05-29T10:13:21.139Z,1.43
2019-05-29T10:15:59.110Z,1.37
2019-05-29T10:18:36.338Z,1.40
2019-05-29T10:21:17.532Z,1.73
2019-05-29T10:23:51.889Z,1.40
2019-05-29T10:26:23.316Z,1.47
2019-05-29T10:31:02.898Z,1.37
2019-05-29T10:31:38.466Z,1.40
2019-05-29T10:34:12.905Z,1.47
2019-05-29T10:36:48.277Z,1.47
2019-05-29T10:39:20.248Z,1.50
2019-05-29T10:41:56.142Z,1.83
2019-05-29T10:44:29.382Z,1.90
2019-05-29T10:47:01.615Z,2.00
2019-05-29T10:49:34.422Z,2.10
2019-05-29T10:52:15.518Z,1.80
2019-05-29T10:54:46.540Z,2.23
2019-05-29T10:57:23.046Z,2.20
2019-05-29T10:59:57.665Z,1.90
2019-05-29T11:02:30.320Z,1.80
2019-05-29T11:05:04.321Z,2.10
2019-05-29T11:07:42.378Z,2.10
2019-05-29T11:10:13.667Z,1.97
2019-05-29T11:12:50.603Z,1.77
2019-05-29T11:15:29.263Z,2.13
2019-05-29T11:18:01.437Z,2.17
2019-05-29T11:20:43.854Z,2.20
2019-05-29T11:23:21.126Z,2.30
2019-05-29T11:25:58.138Z,2.30
2019-05-29T11:28:39.261Z,2.80
2019-05-29T11:31:12.677Z,2.17
2019-05-29T11:33:48.839Z,2.50
2019-05-29T11:36:20.632Z,2.40
2019-05-29T11:39:02.898Z,2.17
2019-05-29T11:41:32.373Z,2.40
2019-05-29T11:44:07.350Z,2.40
2019-05-29T11:46:40.261Z,2.30
2019-05-29T11:49:14.703Z,2.50
2019-05-29T11:51:51.343Z,2.60
2019-05-29T11:54:32.973Z,2.33
2019-05-29T11:57:18.238Z,2.50
2019-05-29T11:59:53.811Z,2.40
2019-05-29T12:02:30.629Z,2.37
2019-05-29T12:05:03.911Z,2.40
2019-05-29T12:07:41.036Z,2.47
2019-05-29T12:10:15.926Z,2.10
2019-05-29T12:12:51.533Z,2.40
2019-05-29T12:15:25.803Z,2.30
2019-05-29T12:18:18.829Z,2.53
2019-05-29T12:20:35.439Z,2.97
2019-05-29T12:23:26.483Z,2.30
2019-05-29T12:26:19.994Z,2.97
2019-05-29T12:28:39.255Z,2.50
2019-05-29T12:31:16.359Z,2.60
2019-05-29T12:33:52.861Z,2.67
2019-05-29T12:36:25.936Z,2.47
2019-05-29T12:39:04.295Z,2.47
2019-05-29T12:41:41.608Z,2.63
2019-05-29T12:44:19.213Z,2.87
2019-05-29T12:46:55.686Z,2.50
2019-05-29T12:49:30.390Z,2.83
2019-05-29T12:52:10.178Z,2.50
2019-05-29T12:54:45.821Z,2.50
2019-05-29T12:57:24.470Z,2.70
2019-05-29T13:00:04.391Z,2.80
2019-05-29T13:02:41.120Z,2.23
2019-05-29T13:05:20.440Z,2.63
2019-05-29T13:07:54.819Z,2.80
2019-05-29T13:10:31.649Z,2.50
2019-05-29T13:13:11.040Z,2.77
2019-05-29T13:15:44.114Z,2.40
2019-05-29T13:18:18.540Z,2.60
2019-05-29T13:20:53.083Z,2.20
2019-05-29T13:23:27.929Z,2.67
2019-05-29T13:26:01.478Z,3.00
2019-05-29T13:28:36.233Z,2.67
2019-05-29T13:31:09.010Z,2.13
2019-05-29T13:33:46.081Z,2.50
2019-05-29T13:36:24.284Z,2.30
2019-05-29T13:39:00.149Z,2.90
2019-05-29T13:41:35.769Z,2.70
2019-05-29T13:44:11.509Z,2.30
2019-05-29T13:46:43.303Z,2.90
2019-05-29T13:49:16.931Z,2.30
2019-05-29T13:51:57.055Z,2.27
2019-05-29T13:54:32.594Z,2.53
2019-05-29T13:57:08.783Z,3.13
2019-05-29T13:59:45.154Z,2.20
2019-05-29T14:02:17.611Z,2.20
2019-05-29T14:04:53.803Z,2.20
2019-05-29T14:07:29.800Z,2.30
2019-05-29T14:10:03.980Z,2.17
2019-05-29T14:12:39.502Z,2.03
2019-05-29T14:15:16.100Z,2.07
2019-05-29T14:17:48.495Z,2.00
2019-05-29T14:20:27.849Z,2.07
2019-05-29T14:23:03.407Z,1.90
2019-05-29T14:25:38.343Z,2.07
2019-05-29T14:28:10.212Z,2.10
2019-05-29T14:30:44.303Z,2.00
2019-05-29T14:33:20.353Z,2.10
2019-05-29T14:35:52.433Z,2.10
2019-05-29T14:38:26.351Z,2.37
2019-05-29T14:41:01.895Z,1.93
2019-05-29T14:43:37.812Z,2.07
2019-05-29T14:46:16.781Z,2.10
2019-05-29T14:48:54.229Z,2.37
2019-05-29T14:51:29.365Z,2.40
2019-05-29T14:54:04.764Z,2.57
2019-05-29T14:56:46.640Z,2.77
2019-05-29T14:59:21.513Z,2.53
2019-05-29T15:01:57.970Z,2.33
2019-05-29T15:04:32.418Z,2.83
2019-05-29T15:07:08.006Z,2.50
2019-05-29T15:09:43.511Z,2.30
2019-05-29T15:12:16.751Z,2.40
2019-05-29T15:14:50.472Z,2.20
2019-05-29T15:17:30.183Z,10.17
2019-05-29T15:20:05.103Z,3.00
2019-05-29T15:22:38.765Z,2.60
2019-05-29T15:25:23.732Z,2.57
2019-05-29T15:27:52.424Z,2.60
2019-05-29T15:30:25.981Z,2.77
2019-05-29T15:33:00.565Z,2.57
2019-05-29T15:35:32.820Z,2.63
2019-05-29T15:38:10.775Z,2.83
2019-05-29T15:40:46.846Z,2.70
2019-05-29T15:43:28.439Z,2.70
2019-05-29T15:46:04.238Z,2.97
2019-05-29T15:48:37.226Z,2.60
2019-05-29T15:51:08.816Z,2.60
2019-05-29T15:53:46.418Z,2.73
2019-05-29T15:56:28.336Z,2.97
2019-05-29T15:59:02.259Z,3.10
2019-05-29T16:01:39.641Z,2.90
2019-05-29T16:04:13.795Z,3.73
2019-05-29T16:06:47.012Z,3.63
2019-05-29T16:09:21.431Z,3.50
2019-05-29T16:11:58.427Z,3.70
2019-05-29T16:14:27.779Z,3.47
2019-05-29T16:16:57.101Z,30.67
2019-05-29T16:19:26.836Z,26.43
2019-05-29T16:21:55.565Z,13.70
2019-05-29T16:24:25.240Z,10.47
2019-05-29T16:27:07.923Z,8.67
2019-05-29T16:29:29.484Z,8.00
2019-05-29T16:32:09.273Z,3.30
2019-05-29T16:34:45.056Z,3.50
2019-05-29T16:37:29.275Z,4.00
2019-05-29T16:40:04.492Z,3.50
2019-05-29T16:42:37.939Z,3.40
2019-05-29T16:45:14.062Z,4.40
2019-05-29T16:47:47.108Z,4.13
2019-05-29T16:50:21.164Z,4.00
2019-05-29T16:53:08.090Z,3.20
2019-05-29T16:55:53.485Z,3.60
2019-05-29T16:58:21.233Z,3.20
2019-05-29T17:00:59.032Z,3.53
2019-05-29T17:03:31.880Z,3.20
2019-05-29T17:06:06.007Z,3.50
2019-05-29T17:08:39.045Z,3.20
2019-05-29T17:11:16.310Z,3.53
2019-05-29T17:13:58.924Z,3.30
2019-05-29T17:16:38.356Z,3.20
2019-05-29T17:19:18.370Z,3.10
2019-05-29T17:21:55.809Z,2.90
2019-05-29T17:24:31.309Z,2.70
2019-05-29T17:27:10.620Z,2.90
2019-05-29T17:29:44.536Z,2.90
2019-05-29T17:32:25.225Z,3.20
2019-05-29T17:34:55.815Z,3.00
2019-05-29T17:37:29.742Z,3.43
2019-05-29T17:40:10.431Z,3.00
2019-05-29T17:42:58.600Z,3.47
2019-05-29T17:45:36.309Z,3.23
2019-05-29T17:48:10.721Z,3.30
2019-05-29T17:50:45.596Z,3.07
2019-05-29T17:53:22.475Z,3.17
2019-05-29T17:55:55.942Z,2.93
2019-05-29T17:58:30.986Z,3.03
2019-05-29T18:01:01.464Z,2.77
2019-05-29T18:03:37.175Z,3.07
2019-05-29T18:06:12.031Z,3.10
2019-05-29T18:08:47.732Z,3.20
2019-05-29T18:11:34.209Z,3.17
2019-05-29T18:14:21.104Z,3.50
2019-05-29T18:17:11.016Z,3.47
2019-05-29T18:19:48.332Z,3.30
2019-05-29T18:22:21.527Z,3.40
2019-05-29T18:24:56.279Z,3.17
2019-05-29T18:27:29.048Z,3.13
2019-05-29T18:30:01.655Z,3.30
2019-05-29T18:32:41.170Z,3.60
2019-05-29T18:35:20.722Z,3.67
2019-05-29T18:37:59.813Z,3.70
2019-05-29T18:40:33.217Z,3.60
2019-05-29T18:43:05.455Z,3.57
2019-05-29T18:45:38.729Z,3.60
2019-05-29T18:48:13.480Z,3.67
2019-05-29T18:50:47.945Z,3.70
2019-05-29T18:53:21.088Z,4.13
2019-05-29T18:55:51.762Z,4.03
2019-05-29T18:58:32.326Z,4.00
2019-05-29T19:01:13.208Z,4.20
2019-05-29T19:03:55.622Z,4.20
2019-05-29T19:06:33.664Z,4.10
2019-05-29T19:09:07.396Z,4.63
2019-05-29T19:11:44.869Z,4.17
2019-05-29T19:14:18.736Z,4.07
2019-05-29T19:16:56.592Z,4.10
2019-05-29T19:19:30.511Z,3.80
2019-05-29T19:22:03.794Z,4.17
2019-05-29T19:24:41.979Z,3.73
2019-05-29T19:27:29.821Z,3.80
2019-05-29T19:29:46.027Z,3.73
2019-05-29T19:32:23.587Z,3.80
2019-05-29T19:35:06.659Z,3.50
2019-05-29T19:37:38.626Z,3.30
2019-05-29T19:40:10.914Z,3.27
2019-05-29T19:42:54.766Z,3.50
2019-05-29T19:45:30.421Z,3.40
2019-05-29T19:48:05.427Z,3.13
2019-05-29T19:50:38.052Z,3.20
2019-05-29T19:53:15.646Z,3.53
2019-05-29T19:55:48.202Z,3.20
2019-05-29T19:58:25.583Z,3.73
2019-05-29T20:01:05.748Z,3.73
2019-05-29T20:03:38.363Z,3.30
2019-05-29T20:06:11.943Z,3.30
2019-05-29T20:08:50.876Z,3.50
2019-05-29T20:11:27.685Z,3.40
2019-05-29T20:13:59.566Z,3.20
2019-05-29T20:16:34.133Z,3.30
2019-05-29T20:19:08.639Z,3.37
2019-05-29T20:21:42.710Z,3.43
2019-05-29T20:24:22.892Z,4.10
2019-05-29T20:27:00.231Z,3.57
2019-05-29T20:29:32.396Z,4.10
2019-05-29T20:32:05.417Z,3.80
2019-05-29T20:34:35.145Z,3.93
2019-05-29T20:37:04.827Z,3.60
2019-05-29T20:39:34.515Z,3.53
2019-05-29T20:42:02.839Z,3.60
2019-05-29T20:44:32.577Z,3.50
2019-05-29T20:47:01.617Z,3.73
2019-05-29T20:49:31.798Z,3.40
2019-05-29T20:52:00.815Z,3.30
2019-05-29T20:54:29.519Z,3.90
2019-05-29T20:56:59.801Z,3.77
2019-05-29T20:59:31.791Z,3.60
2019-05-29T21:02:00.732Z,3.60
2019-05-29T21:04:29.393Z,3.60
2019-05-29T21:06:58.075Z,3.83
2019-05-29T21:09:26.784Z,3.40
2019-05-29T21:11:55.355Z,4.23
2019-05-29T21:14:23.717Z,3.63
2019-05-29T21:16:52.422Z,4.50
2019-05-29T21:19:21.096Z,4.30
2019-05-29T21:21:49.773Z,4.60
2019-05-29T21:24:18.469Z,4.67
2019-05-29T21:26:46.945Z,4.90
2019-05-29T21:29:15.617Z,4.27
2019-05-29T21:31:44.326Z,4.93
2019-05-29T21:34:12.778Z,4.60
2019-05-29T21:36:42.178Z,5.03
2019-05-29T21:39:10.796Z,5.13
2019-05-29T21:41:40.423Z,4.80
2019-05-29T21:44:08.955Z,4.60
2019-05-29T21:46:38.765Z,4.70
2019-05-29T21:49:07.059Z,4.57
2019-05-29T21:51:35.528Z,4.80
2019-05-29T21:54:04.346Z,4.70
2019-05-29T21:56:32.599Z,5.17
2019-05-29T21:59:04.001Z,5.60
2019-05-29T22:01:32.106Z,5.40
2019-05-29T22:04:00.790Z,5.00
2019-05-29T22:06:29.374Z,5.67
2019-05-29T22:08:58.073Z,5.17
2019-05-29T22:11:27.042Z,5.77
2019-05-29T22:13:56.559Z,5.70
2019-05-29T22:16:27.531Z,6.10
2019-05-29T22:18:57.024Z,5.50
2019-05-29T22:21:26.721Z,5.57
2019-05-29T22:23:55.522Z,5.40
2019-05-29T22:26:23.966Z,5.40
2019-05-29T22:28:53.113Z,6.30
2019-05-29T22:31:21.990Z,6.00
2019-05-29T22:33:51.429Z,6.30
2019-05-29T22:36:19.934Z,6.27
2019-05-29T22:38:49.680Z,6.53
2019-05-29T22:41:19.080Z,5.67
2019-05-29T22:43:47.647Z,6.00
2019-05-29T22:46:16.363Z,6.43
2019-05-29T22:48:44.718Z,6.30
2019-05-29T22:51:13.506Z,6.10
2019-05-29T22:53:41.985Z,7.50
2019-05-29T22:56:10.669Z,7.47
2019-05-29T22:58:39.371Z,7.27
2019-05-29T23:01:08.042Z,8.10
2019-05-29T23:03:36.725Z,7.53
2019-05-29T23:06:05.433Z,8.00
2019-05-29T23:08:34.327Z,8.20
2019-05-29T23:11:03.132Z,7.57
2019-05-29T23:13:31.571Z,8.53
2019-05-29T23:16:00.753Z,8.93
2019-05-29T23:18:29.137Z,8.20
2019-05-29T23:20:58.454Z,8.57
2019-05-29T23:23:27.549Z,8.70
2019-05-29T23:25:56.499Z,8.83
2019-05-29T23:28:25.048Z,9.33
2019-05-29T23:30:54.649Z,8.13
2019-05-29T23:33:23.094Z,7.70
2019-05-29T23:35:52.817Z,7.77
2019-05-29T23:38:21.114Z,8.07
2019-05-29T23:40:49.669Z,7.57
2019-05-29T23:43:18.358Z,7.70
2019-05-29T23:45:47.053Z,7.73
2019-05-29T23:48:15.294Z,7.70
2019-05-29T23:50:43.994Z,7.43
2019-05-29T23:53:12.705Z,7.10
2019-05-29T23:55:41.375Z,7.20
2019-05-29T23:58:10.061Z,7.30
